Terminal Aerodrome Forecast
Issued by NWS

Home | Current Version | Previous Version | Text Only | Print | Product List | Glossary On
Versions: 1 2 3 4 5 6 7 8 9 10 11 12 13 14 15 16 17 18 19 20 21
000
FTUS44 KLIX 181738
TAFGPT
TAF
KGPT 181738Z 1818/1918 14006KT P6SM OVC007
     FM182200 15006KT P6SM BKN015
     FM190100 14005KT 5SM BR OVC003
     FM190200 14004KT 2SM BR OVC003
     FM190300 14006KT 1/4SM FG VV003
     FM191300 16007KT 1/4SM FG VCSH OVC003
     FM191500 16008KT 1SM SHRA BR VCTS OVC003CB
     FM191630 17007KT 5SM SHRA BR VCTS OVC008CB=

USA.gov is the U.S. government's official web portal to all federal, state and local government web resources and services.